createdAt,value
2018-03-19T00:00:30.104Z,1006.24
2018-03-19T00:01:30.115Z,1006.26
2018-03-19T00:02:30.136Z,1006.22
2018-03-19T00:03:30.147Z,1006.23
2018-03-19T00:04:30.164Z,1006.17
2018-03-19T00:05:30.178Z,1006.19
2018-03-19T00:06:30.189Z,1006.20
2018-03-19T00:07:30.209Z,1006.13
2018-03-19T00:08:30.214Z,1006.17
2018-03-19T00:09:30.236Z,1006.14
2018-03-19T00:10:30.242Z,1006.10
2018-03-19T00:11:30.263Z,1006.13
2018-03-19T00:12:30.274Z,1006.08
2018-03-19T00:13:30.291Z,1006.07
2018-03-19T00:14:30.301Z,1006.09
2018-03-19T00:15:30.313Z,1006.11
2018-03-19T00:16:30.331Z,1005.99
2018-03-19T00:17:30.342Z,1006.07
2018-03-19T00:18:30.365Z,1006.01
2018-03-19T00:19:30.380Z,1006.05
2018-03-19T00:20:30.390Z,1006.04
2018-03-19T00:21:30.408Z,1006.05
2018-03-19T00:22:30.419Z,1006.00
2018-03-19T00:23:30.435Z,1006.02
2018-03-19T00:24:30.441Z,1005.99
2018-03-19T00:25:30.458Z,1006.06
2018-03-19T00:26:30.475Z,1006.06
2018-03-19T00:27:30.491Z,1006.02
2018-03-19T00:28:30.502Z,1006.03
2018-03-19T00:29:30.513Z,1006.04
2018-03-19T00:30:30.534Z,1006.05
2018-03-19T00:31:30.543Z,1006.00
2018-03-19T00:32:30.555Z,1006.05
2018-03-19T00:33:30.577Z,1006.02
2018-03-19T00:34:30.584Z,1006.05
2018-03-19T00:35:30.604Z,1006.05
2018-03-19T00:36:30.616Z,1006.02
2018-03-19T00:37:30.626Z,1006.08
2018-03-19T00:38:30.644Z,1006.05
2018-03-19T00:39:30.660Z,1006.13
2018-03-19T00:40:30.678Z,1006.05
2018-03-19T00:41:30.689Z,1006.07
2018-03-19T00:42:30.707Z,1006.03
2018-03-19T00:43:30.719Z,1006.04
2018-03-19T00:44:30.726Z,1006.08
2018-03-19T00:45:30.749Z,1006.04
2018-03-19T00:46:30.756Z,1006.12
2018-03-19T00:47:30.775Z,1006.08
2018-03-19T00:48:30.791Z,1006.09
2018-03-19T00:49:30.803Z,1006.12
2018-03-19T00:50:30.813Z,1006.10
2018-03-19T00:51:30.828Z,1006.14
2018-03-19T00:52:30.852Z,1006.08
2018-03-19T00:53:30.862Z,1006.06
2018-03-19T00:54:30.873Z,1006.16
2018-03-19T00:55:30.884Z,1006.12
2018-03-19T00:56:30.902Z,1006.15
2018-03-19T00:57:30.912Z,1006.13
2018-03-19T00:58:30.930Z,1006.20
2018-03-19T00:59:30.938Z,1006.15
2018-03-19T01:00:30.968Z,1006.17
2018-03-19T01:01:30.966Z,1006.16
2018-03-19T01:02:30.990Z,1006.12
2018-03-19T01:03:30.998Z,1006.18
2018-03-19T01:04:31.009Z,1006.11
2018-03-19T01:05:31.032Z,1006.13
2018-03-19T01:06:31.037Z,1006.08
2018-03-19T01:07:31.052Z,1006.12
2018-03-19T01:08:31.075Z,1006.13
2018-03-19T01:09:31.091Z,1006.03
2018-03-19T01:10:31.097Z,1006.16
2018-03-19T01:11:31.108Z,1006.04
2018-03-19T01:12:31.131Z,1005.96
2018-03-19T01:13:31.135Z,1006.01
2018-03-19T01:14:31.159Z,1006.05
2018-03-19T01:15:31.168Z,1006.02
2018-03-19T01:16:31.184Z,1006.00
2018-03-19T01:17:31.195Z,1005.97
2018-03-19T01:18:31.218Z,1006.04
2018-03-19T01:19:31.226Z,1006.01
2018-03-19T01:20:31.238Z,1006.00
2018-03-19T01:21:31.254Z,1006.00
2018-03-19T01:22:31.265Z,1006.02
2018-03-19T01:23:31.286Z,1006.01
2018-03-19T01:24:31.291Z,1006.01
2018-03-19T01:25:31.315Z,1006.04
2018-03-19T01:26:31.320Z,1005.98
2018-03-19T01:27:31.342Z,1006.04
2018-03-19T01:28:31.349Z,1006.04
2018-03-19T01:29:31.376Z,1006.00
2018-03-19T01:30:31.375Z,1006.02
2018-03-19T01:31:31.396Z,1005.99
2018-03-19T01:32:31.407Z,1006.06
2018-03-19T01:33:31.423Z,1006.01
2018-03-19T01:34:31.444Z,1006.01
2018-03-19T01:35:31.452Z,1005.98
2018-03-19T01:36:31.467Z,1006.05
2018-03-19T01:37:31.481Z,1006.02
2018-03-19T01:38:31.487Z,1006.02
2018-03-19T01:39:31.502Z,1005.95
2018-03-19T01:40:31.524Z,1006.02
2018-03-19T01:41:31.535Z,1005.98
2018-03-19T01:42:31.547Z,1005.96
2018-03-19T01:43:31.557Z,1005.98
2018-03-19T01:44:31.579Z,1006.01
2018-03-19T01:45:31.591Z,1006.02
2018-03-19T01:46:31.607Z,1005.96
2018-03-19T01:47:31.616Z,1005.92
2018-03-19T01:48:31.633Z,1005.94
2018-03-19T01:49:31.649Z,1005.93
2018-03-19T01:50:31.655Z,1005.95
2018-03-19T01:51:31.670Z,1005.97
2018-03-19T01:52:31.693Z,1006.00
2018-03-19T01:53:31.703Z,1006.01
2018-03-19T01:54:31.714Z,1006.00
2018-03-19T01:55:31.728Z,1005.95
2018-03-19T01:56:31.745Z,1005.98
2018-03-19T01:57:31.761Z,1005.98
2018-03-19T01:58:31.767Z,1005.96
2018-03-19T01:59:31.785Z,1005.95
2018-03-19T02:00:31.800Z,1005.96
2018-03-19T02:01:31.817Z,1005.94
2018-03-19T02:02:31.822Z,1005.97
2018-03-19T02:03:31.836Z,1005.98
2018-03-19T02:04:31.859Z,1006.00
2018-03-19T02:05:31.869Z,1005.97
2018-03-19T02:06:31.883Z,1005.94
2018-03-19T02:07:31.895Z,1005.91
2018-03-19T02:08:31.912Z,1006.01
2018-03-19T02:09:31.923Z,1006.02
2018-03-19T02:10:31.939Z,1005.93
2018-03-19T02:11:31.948Z,1005.92
2018-03-19T02:12:31.972Z,1005.93
2018-03-19T02:13:31.975Z,1005.95
2018-03-19T02:14:31.999Z,1005.94
2018-03-19T02:15:32.003Z,1005.90
2018-03-19T02:16:32.027Z,1005.92
2018-03-19T02:17:32.034Z,1005.91
2018-03-19T02:18:32.053Z,1005.92
2018-03-19T02:19:32.062Z,1005.94
2018-03-19T02:20:32.082Z,1005.95
2018-03-19T02:21:32.090Z,1005.90
2018-03-19T02:22:32.107Z,1005.89
2018-03-19T02:23:32.121Z,1005.85
2018-03-19T02:24:32.132Z,1005.94
2018-03-19T02:25:32.149Z,1005.92
2018-03-19T02:26:32.160Z,1005.87
2018-03-19T02:27:32.180Z,1005.82
2018-03-19T02:28:32.185Z,1005.86
2018-03-19T02:29:32.206Z,1005.91
2018-03-19T02:30:32.213Z,1005.91
2018-03-19T02:31:32.237Z,1005.88
2018-03-19T02:32:32.248Z,1005.89
2018-03-19T02:33:32.263Z,1005.87
2018-03-19T02:34:32.274Z,1005.95
2018-03-19T02:35:32.284Z,1005.90
2018-03-19T02:36:32.307Z,1005.91
2018-03-19T02:37:32.315Z,1005.97
2018-03-19T02:38:32.326Z,1005.92
2018-03-19T02:39:32.341Z,1005.90
2018-03-19T02:40:32.358Z,1005.89
2018-03-19T02:41:32.370Z,1005.91
2018-03-19T02:42:32.384Z,1005.90
2018-03-19T02:43:32.393Z,1005.98
2018-03-19T02:44:32.416Z,1005.96
2018-03-19T02:45:32.419Z,1005.99
2018-03-19T02:46:32.442Z,1005.92
2018-03-19T02:47:32.454Z,1006.01
2018-03-19T02:48:32.466Z,1005.98
2018-03-19T02:49:32.475Z,1005.95
2018-03-19T02:50:32.501Z,1005.98
2018-03-19T02:51:32.512Z,1005.98
2018-03-19T02:52:32.531Z,1005.99
2018-03-19T02:53:32.533Z,1005.98
2018-03-19T02:54:32.552Z,1006.10
2018-03-19T02:55:32.564Z,1006.04
2018-03-19T02:56:32.579Z,1006.00
2018-03-19T02:57:32.586Z,1006.05
2018-03-19T02:58:32.608Z,1005.99
2018-03-19T02:59:32.624Z,1006.07
2018-03-19T03:00:32.629Z,1006.08
2018-03-19T03:01:32.644Z,1006.12
2018-03-19T03:02:32.661Z,1006.06
2018-03-19T03:03:32.678Z,1006.00
2018-03-19T03:04:32.684Z,1006.14
2018-03-19T03:05:32.696Z,1006.13
2018-03-19T03:06:32.710Z,1006.06
2018-03-19T03:07:32.730Z,1006.11
2018-03-19T03:08:32.748Z,1006.08
2018-03-19T03:09:32.750Z,1006.07
2018-03-19T03:10:32.774Z,1006.09
2018-03-19T03:11:32.782Z,1006.09
2018-03-19T03:12:32.799Z,1006.16
2018-03-19T03:13:32.815Z,1006.14
2018-03-19T03:14:32.823Z,1006.15
2018-03-19T03:15:32.840Z,1006.17
2018-03-19T03:16:32.857Z,1006.14
2018-03-19T03:17:32.867Z,1006.16
2018-03-19T03:18:32.878Z,1006.21
2018-03-19T03:19:32.892Z,1006.24
2018-03-19T03:20:32.914Z,1006.15
2018-03-19T03:21:32.917Z,1006.20
2018-03-19T03:22:32.936Z,1006.17
2018-03-19T03:23:32.947Z,1006.16
2018-03-19T03:24:32.958Z,1006.17
2018-03-19T03:25:32.973Z,1006.13
2018-03-19T03:26:32.991Z,1006.14
2018-03-19T03:27:32.998Z,1006.08
2018-03-19T03:28:33.022Z,1006.13
2018-03-19T03:29:33.026Z,1006.15
2018-03-19T03:30:33.050Z,1006.18
2018-03-19T03:31:33.058Z,1006.15
2018-03-19T03:32:33.073Z,1006.14
2018-03-19T03:33:33.083Z,1006.23
2018-03-19T03:34:33.101Z,1006.15
2018-03-19T03:35:33.117Z,1006.17
2018-03-19T03:36:33.129Z,1006.16
2018-03-19T03:37:33.138Z,1006.20
2018-03-19T03:38:33.155Z,1006.19
2018-03-19T03:39:33.163Z,1006.22
2018-03-19T03:40:33.185Z,1006.19
2018-03-19T03:41:33.197Z,1006.20
2018-03-19T03:42:33.214Z,1006.19
2018-03-19T03:43:33.222Z,1006.24
2018-03-19T03:44:33.237Z,1006.25
2018-03-19T03:45:33.254Z,1006.25
2018-03-19T03:46:33.258Z,1006.26
2018-03-19T03:47:33.272Z,1006.24
2018-03-19T03:48:33.297Z,1006.24
2018-03-19T03:49:33.304Z,1006.23
2018-03-19T03:50:33.316Z,1006.24
2018-03-19T03:51:33.333Z,1006.22
2018-03-19T03:52:33.349Z,1006.24
2018-03-19T03:53:33.354Z,1006.17
2018-03-19T03:54:33.372Z,1006.18
2018-03-19T03:55:33.384Z,1006.21
2018-03-19T03:56:33.401Z,1006.18
2018-03-19T03:57:33.411Z,1006.23
2018-03-19T03:58:33.428Z,1006.16
2018-03-19T03:59:33.436Z,1006.17
2018-03-19T04:00:33.459Z,1006.17
2018-03-19T04:01:33.468Z,1006.18
2018-03-19T04:02:33.479Z,1006.21
2018-03-19T04:03:33.493Z,1006.22
2018-03-19T04:04:33.515Z,1006.21
2018-03-19T04:05:33.526Z,1006.22
2018-03-19T04:06:33.530Z,1006.22
2018-03-19T04:07:33.552Z,1006.25
2018-03-19T04:08:33.557Z,1006.27
2018-03-19T04:09:33.574Z,1006.22
2018-03-19T04:10:33.588Z,1006.25
2018-03-19T04:11:33.604Z,1006.17
2018-03-19T04:12:33.621Z,1006.21
2018-03-19T04:13:33.625Z,1006.20
2018-03-19T04:14:33.648Z,1006.20
2018-03-19T04:15:33.661Z,1006.20
2018-03-19T04:16:33.666Z,1006.25
2018-03-19T04:17:33.689Z,1006.20
2018-03-19T04:18:33.694Z,1006.24
2018-03-19T04:19:33.712Z,1006.26
2018-03-19T04:20:33.722Z,1006.26
2018-03-19T04:21:33.747Z,1006.25
2018-03-19T04:22:33.750Z,1006.24
2018-03-19T04:23:33.761Z,1006.22
2018-03-19T04:24:33.786Z,1006.25
2018-03-19T04:25:33.787Z,1006.22
2018-03-19T04:26:33.804Z,1006.31
2018-03-19T04:27:33.818Z,1006.28
2018-03-19T04:28:33.829Z,1006.32
2018-03-19T04:29:33.844Z,1006.30
2018-03-19T04:30:33.861Z,1006.34
2018-03-19T04:31:33.880Z,1006.38
2018-03-19T04:32:33.889Z,1006.37
2018-03-19T04:33:33.904Z,1006.40
2018-03-19T04:34:33.910Z,1006.43
2018-03-19T04:35:33.923Z,1006.36
2018-03-19T04:36:33.944Z,1006.35
2018-03-19T04:37:33.954Z,1006.33
2018-03-19T04:38:33.965Z,1006.34
2018-03-19T04:39:33.976Z,1006.34
2018-03-19T04:40:33.999Z,1006.28
2018-03-19T04:41:34.013Z,1006.36
2018-03-19T04:42:34.019Z,1006.33
2018-03-19T04:43:34.033Z,1006.28
2018-03-19T04:44:34.055Z,1006.32
2018-03-19T04:45:34.066Z,1006.27
2018-03-19T04:46:34.070Z,1006.23
2018-03-19T04:47:34.092Z,1006.30
2018-03-19T04:48:34.105Z,1006.30
2018-03-19T04:49:34.110Z,1006.25
2018-03-19T04:50:34.132Z,1006.31
2018-03-19T04:51:34.140Z,1006.28
2018-03-19T04:52:34.157Z,1006.21
2018-03-19T04:53:34.166Z,1006.29
2018-03-19T04:54:34.183Z,1006.27
2018-03-19T04:55:34.194Z,1006.27
2018-03-19T04:56:34.210Z,1006.30
2018-03-19T04:57:34.219Z,1006.24
2018-03-19T04:58:34.240Z,1006.24
2018-03-19T04:59:34.246Z,1006.25
2018-03-19T05:00:34.266Z,1006.28
2018-03-19T05:01:34.270Z,1006.27
2018-03-19T05:02:34.293Z,1006.28
2018-03-19T05:03:34.305Z,1006.26
2018-03-19T05:04:34.310Z,1006.29
2018-03-19T05:05:34.332Z,1006.28
2018-03-19T05:06:34.337Z,1006.27
2018-03-19T05:07:34.357Z,1006.27
2018-03-19T05:08:34.367Z,1006.31
2018-03-19T05:09:34.385Z,1006.29
2018-03-19T05:10:34.395Z,1006.28
2018-03-19T05:11:34.415Z,1006.32
2018-03-19T05:12:34.420Z,1006.31
2018-03-19T05:13:34.436Z,1006.33
2018-03-19T05:14:34.447Z,1006.31
2018-03-19T05:15:34.465Z,1006.34
2018-03-19T05:16:34.470Z,1006.27
2018-03-19T05:17:34.508Z,1006.38
2018-03-19T05:18:34.496Z,1006.32
2018-03-19T05:19:34.510Z,1006.32
2018-03-19T05:20:34.532Z,1006.34
2018-03-19T05:21:34.542Z,1006.39
2018-03-19T05:22:34.553Z,1006.39
2018-03-19T05:23:34.567Z,1006.40
2018-03-19T05:24:34.585Z,1006.38
2018-03-19T05:25:34.598Z,1006.43
2018-03-19T05:26:34.603Z,1006.42
2018-03-19T05:27:34.620Z,1006.41
2018-03-19T05:28:34.637Z,1006.46
2018-03-19T05:29:34.652Z,1006.47
2018-03-19T05:30:34.657Z,1006.56
2018-03-19T05:31:34.670Z,1006.62
2018-03-19T05:32:34.699Z,1006.59
2018-03-19T05:33:34.702Z,1006.66
2018-03-19T05:34:34.713Z,1006.59
2018-03-19T05:35:34.727Z,1006.67
2018-03-19T05:36:34.744Z,1006.68
2018-03-19T05:37:34.757Z,1006.63
2018-03-19T05:38:34.798Z,1006.69
2018-03-19T05:39:34.776Z,1006.64
2018-03-19T05:40:34.798Z,1006.63
2018-03-19T05:41:34.811Z,1006.69
2018-03-19T05:42:34.819Z,1006.68
2018-03-19T05:43:34.836Z,1006.63
2018-03-19T05:44:34.847Z,1006.63
2018-03-19T05:45:34.859Z,1006.70
2018-03-19T05:46:34.881Z,1006.70
2018-03-19T05:47:34.892Z,1006.76
2018-03-19T05:48:34.896Z,1006.72
2018-03-19T05:49:34.912Z,1006.74
2018-03-19T05:50:34.932Z,1006.75
2018-03-19T05:51:34.937Z,1006.73
2018-03-19T05:52:34.955Z,1006.77
2018-03-19T05:53:34.967Z,1006.75
2018-03-19T05:54:34.985Z,1006.83
2018-03-19T05:55:34.992Z,1006.82
2018-03-19T05:56:35.010Z,1006.80
2018-03-19T05:57:35.019Z,1006.77
2018-03-19T05:58:35.036Z,1006.84
2018-03-19T05:59:35.047Z,1006.82
2018-03-19T06:00:35.063Z,1006.86
2018-03-19T06:01:35.082Z,1006.79
2018-03-19T06:02:35.095Z,1006.86
2018-03-19T06:03:35.096Z,1006.84
2018-03-19T06:04:35.120Z,1006.87
2018-03-19T06:05:35.129Z,1006.86
2018-03-19T06:06:35.140Z,1006.94
2018-03-19T06:07:35.159Z,1006.85
2018-03-19T06:08:35.164Z,1006.88
2018-03-19T06:09:35.186Z,1006.88
2018-03-19T06:10:35.193Z,1006.91
2018-03-19T06:11:35.209Z,1006.88
2018-03-19T06:12:35.221Z,1006.89
2018-03-19T06:13:35.239Z,1006.83
2018-03-19T06:14:35.246Z,1006.89
2018-03-19T06:15:35.257Z,1006.96
2018-03-19T06:16:35.280Z,1007.01
2018-03-19T06:17:35.284Z,1006.95
2018-03-19T06:18:35.308Z,1006.93
2018-03-19T06:19:35.316Z,1006.97
2018-03-19T06:20:35.330Z,1006.93
2018-03-19T06:21:35.340Z,1006.89
2018-03-19T06:22:35.357Z,1006.95
2018-03-19T06:23:35.365Z,1007.01
2018-03-19T06:24:35.390Z,1006.92
2018-03-19T06:25:35.409Z,1007.01
2018-03-19T06:26:35.408Z,1006.94
2018-03-19T06:27:35.422Z,1006.98
2018-03-19T06:28:35.437Z,1006.97
2018-03-19T06:29:35.455Z,1007.00
2018-03-19T06:30:35.458Z,1007.02
2018-03-19T06:31:35.481Z,1007.05
2018-03-19T06:32:35.487Z,1007.04
2018-03-19T06:33:35.508Z,1007.07
2018-03-19T06:34:35.512Z,1007.06
2018-03-19T06:35:35.533Z,1007.11
2018-03-19T06:36:35.542Z,1007.09
2018-03-19T06:37:35.558Z,1007.09
2018-03-19T06:38:35.569Z,1007.10
2018-03-19T06:39:35.589Z,1007.10
2018-03-19T06:40:35.599Z,1007.09
2018-03-19T06:41:35.620Z,1007.08
2018-03-19T06:42:35.621Z,1007.19
2018-03-19T06:43:35.635Z,1007.23
2018-03-19T06:44:35.656Z,1007.17
2018-03-19T06:45:35.737Z,1007.20
2018-03-19T06:46:35.697Z,1007.22
2018-03-19T06:47:35.697Z,1007.20
2018-03-19T06:48:35.710Z,1007.17
2018-03-19T06:49:35.720Z,1007.23
2018-03-19T06:50:35.735Z,1007.28
2018-03-19T06:51:35.744Z,1007.26
2018-03-19T06:52:35.762Z,1007.29
2018-03-19T06:53:35.776Z,1007.22
2018-03-19T06:54:35.801Z,1007.25
2018-03-19T06:55:35.845Z,1007.25
2018-03-19T06:56:35.812Z,1007.24
2018-03-19T06:57:35.828Z,1007.28
2018-03-19T06:58:35.840Z,1007.28
2018-03-19T06:59:35.858Z,1007.29
2018-03-19T07:00:35.865Z,1007.25
2018-03-19T07:01:35.879Z,1007.27
2018-03-19T07:02:35.889Z,1007.23
2018-03-19T07:03:35.913Z,1007.30
2018-03-19T07:04:35.917Z,1007.36
2018-03-19T07:05:35.940Z,1007.32
2018-03-19T07:06:35.945Z,1007.38
2018-03-19T07:07:35.964Z,1007.31
2018-03-19T07:08:35.974Z,1007.41
2018-03-19T07:09:35.992Z,1007.33
2018-03-19T07:10:36.001Z,1007.37
2018-03-19T07:11:36.052Z,1007.39
2018-03-19T07:12:36.033Z,1007.35
2018-03-19T07:13:36.050Z,1007.31
2018-03-19T07:14:36.058Z,1007.29
2018-03-19T07:15:36.068Z,1007.30
2018-03-19T07:16:36.091Z,1007.34
2018-03-19T07:17:36.099Z,1007.34
2018-03-19T07:18:36.116Z,1007.33
2018-03-19T07:19:36.122Z,1007.30
2018-03-19T07:20:36.146Z,1007.36
2018-03-19T07:21:36.147Z,1007.38
2018-03-19T07:22:36.195Z,1007.32
2018-03-19T07:23:36.179Z,1007.33
2018-03-19T07:24:36.197Z,1007.32
2018-03-19T07:25:36.209Z,1007.40
2018-03-19T07:26:36.222Z,1007.37
2018-03-19T07:27:36.236Z,1007.42
2018-03-19T07:28:36.250Z,1007.40
2018-03-19T07:29:36.271Z,1007.40
2018-03-19T07:30:36.276Z,1007.43
2018-03-19T07:31:36.295Z,1007.38
2018-03-19T07:32:36.321Z,1007.45
2018-03-19T07:33:36.317Z,1007.46
2018-03-19T07:34:36.402Z,1007.44
2018-03-19T07:35:36.344Z,1007.40
2018-03-19T07:36:36.361Z,1007.38
2018-03-19T07:37:36.377Z,1007.32
2018-03-19T07:38:36.382Z,1007.42
2018-03-19T07:39:36.396Z,1007.38
2018-03-19T07:40:36.418Z,1007.39
2018-03-19T07:41:36.430Z,1007.42
2018-03-19T07:42:36.441Z,1007.59
2018-03-19T07:43:36.461Z,1007.91
2018-03-19T07:44:36.472Z,1008.12
2018-03-19T07:45:36.489Z,1008.32
2018-03-19T07:46:36.496Z,1008.35
2018-03-19T07:47:36.509Z,1008.31
2018-03-19T07:48:36.548Z,1008.21
2018-03-19T07:49:36.538Z,1008.21
2018-03-19T07:50:36.560Z,1008.19
2018-03-19T07:51:36.575Z,1008.08
2018-03-19T07:52:36.589Z,1008.07
2018-03-19T07:53:36.602Z,1008.01
2018-03-19T07:54:36.627Z,1008.21
2018-03-19T07:55:36.643Z,1008.52
2018-03-19T07:56:36.659Z,1008.82
2018-03-19T07:57:36.674Z,1008.92
2018-03-19T07:58:36.694Z,1009.00
2018-03-19T07:59:36.712Z,1008.97
2018-03-19T08:00:36.729Z,1008.97
2018-03-19T08:01:36.756Z,1008.88
2018-03-19T08:02:36.765Z,1008.91
2018-03-19T08:03:36.791Z,1008.86
2018-03-19T08:04:36.802Z,1008.94
2018-03-19T08:05:36.825Z,1008.89
2018-03-19T08:06:36.844Z,1008.95
2018-03-19T08:07:36.898Z,1008.83
2018-03-19T08:08:36.890Z,1008.78
2018-03-19T08:09:36.913Z,1008.78
2018-03-19T08:10:36.925Z,1008.84
2018-03-19T08:11:36.947Z,1008.79
2018-03-19T08:12:36.978Z,1008.80
2018-03-19T08:13:36.995Z,1008.81
2018-03-19T08:14:37.020Z,1008.69
2018-03-19T08:15:37.043Z,1008.68
2018-03-19T08:16:37.057Z,1008.64
2018-03-19T08:17:37.081Z,1008.70
2018-03-19T08:18:37.115Z,1008.65
2018-03-19T08:19:37.130Z,1008.68
2018-03-19T08:20:37.156Z,1008.65
2018-03-19T08:21:37.175Z,1008.58
2018-03-19T08:22:37.202Z,1008.66
2018-03-19T08:23:37.222Z,1008.66
2018-03-19T08:24:37.242Z,1008.65
2018-03-19T08:25:37.268Z,1008.60
2018-03-19T08:26:37.288Z,1008.58
2018-03-19T08:27:37.318Z,1008.60
2018-03-19T08:28:37.334Z,1008.58
2018-03-19T08:29:37.364Z,1008.60
2018-03-19T08:30:37.379Z,1008.61
2018-03-19T08:31:37.409Z,1008.57
2018-03-19T08:32:37.431Z,1008.58
2018-03-19T08:33:37.451Z,1008.57
2018-03-19T08:34:37.478Z,1008.54
2018-03-19T08:35:37.511Z,1008.50
2018-03-19T08:36:37.537Z,1008.49
2018-03-19T08:37:37.550Z,1008.49
2018-03-19T08:38:37.578Z,1008.47
2018-03-19T08:39:37.600Z,1008.50
2018-03-19T08:40:37.627Z,1008.48
2018-03-19T08:41:37.736Z,1008.49
2018-03-19T08:42:37.679Z,1008.54
2018-03-19T08:43:37.696Z,1008.47
2018-03-19T08:44:37.730Z,1008.43
2018-03-19T08:45:37.744Z,1008.43
2018-03-19T08:46:37.778Z,1008.44
2018-03-19T08:47:37.804Z,1008.43
2018-03-19T08:48:37.826Z,1008.40
2018-03-19T08:49:37.875Z,1008.44
2018-03-19T08:50:37.922Z,1008.43
2018-03-19T08:51:37.904Z,1008.41
2018-03-19T08:52:37.923Z,1008.36
2018-03-19T08:53:37.962Z,1008.41
2018-03-19T08:54:37.970Z,1008.38
2018-03-19T08:55:37.999Z,1008.46
2018-03-19T08:56:38.034Z,1008.44
2018-03-19T08:57:38.049Z,1008.35
2018-03-19T08:58:38.078Z,1008.36
2018-03-19T08:59:38.098Z,1008.41
2018-03-19T09:00:38.133Z,1008.49
2018-03-19T09:01:38.148Z,1008.38
2018-03-19T09:02:38.183Z,1008.42
2018-03-19T09:03:38.203Z,1008.39
2018-03-19T09:04:38.232Z,1008.39
2018-03-19T09:05:38.261Z,1008.49
2018-03-19T09:06:38.277Z,1008.51
2018-03-19T09:07:38.310Z,1008.42
2018-03-19T09:08:38.339Z,1008.24
2018-03-19T09:09:38.361Z,1008.45
2018-03-19T09:10:38.395Z,1008.42
2018-03-19T09:11:38.413Z,1008.41
2018-03-19T09:12:38.453Z,1008.42
2018-03-19T09:13:38.465Z,1008.45
2018-03-19T09:14:38.488Z,1008.52
2018-03-19T09:15:38.520Z,1008.50
2018-03-19T09:16:38.539Z,1008.48
2018-03-19T09:17:38.572Z,1008.52
2018-03-19T09:18:38.589Z,1008.53
2018-03-19T09:19:38.617Z,1008.54
2018-03-19T09:20:38.652Z,1008.56
2018-03-19T09:21:38.675Z,1008.60
2018-03-19T09:22:38.698Z,1008.69
2018-03-19T09:23:38.726Z,1008.60
2018-03-19T09:24:38.755Z,1008.62
2018-03-19T09:25:38.810Z,1008.61
2018-03-19T09:26:38.806Z,1008.59
2018-03-19T09:27:38.838Z,1008.64
2018-03-19T09:28:38.856Z,1008.65
2018-03-19T09:29:38.885Z,1008.65
2018-03-19T09:30:38.914Z,1008.63
2018-03-19T09:31:38.942Z,1008.54
2018-03-19T09:32:38.966Z,1008.64
2018-03-19T09:33:38.988Z,1008.66
2018-03-19T09:34:39.024Z,1008.63
2018-03-19T09:35:39.045Z,1008.67
2018-03-19T09:36:39.127Z,1008.70
2018-03-19T09:37:39.097Z,1008.72
2018-03-19T09:38:39.128Z,1008.73
2018-03-19T09:39:39.153Z,1008.77
2018-03-19T09:40:39.186Z,1008.77
2018-03-19T09:41:39.222Z,1008.73
2018-03-19T09:42:39.238Z,1008.71
2018-03-19T09:43:39.257Z,1008.74
2018-03-19T09:44:39.293Z,1008.70
2018-03-19T09:45:39.319Z,1008.78
2018-03-19T09:46:39.341Z,1008.79
2018-03-19T09:47:39.368Z,1008.79
2018-03-19T09:48:39.398Z,1008.82
2018-03-19T09:49:39.427Z,1008.79
2018-03-19T09:50:39.464Z,1008.77
2018-03-19T09:51:39.479Z,1008.77
2018-03-19T09:52:39.503Z,1008.69
2018-03-19T09:53:39.535Z,1008.66
2018-03-19T09:54:39.611Z,1008.60
2018-03-19T09:55:39.595Z,1008.59
2018-03-19T09:56:39.610Z,1008.62
2018-03-19T09:57:39.645Z,1008.63
2018-03-19T09:58:39.664Z,1008.72
2018-03-19T09:59:39.700Z,1008.70
2018-03-19T10:00:39.719Z,1008.67
2018-03-19T10:01:39.755Z,1008.66
2018-03-19T10:02:39.773Z,1008.60
2018-03-19T10:03:39.806Z,1008.65
2018-03-19T10:04:39.831Z,1008.62
2018-03-19T10:05:39.861Z,1008.64
2018-03-19T10:06:39.885Z,1008.63
2018-03-19T10:07:39.912Z,1008.67
2018-03-19T10:08:39.942Z,1008.71
2018-03-19T10:09:39.971Z,1008.70
2018-03-19T10:10:39.993Z,1008.65
2018-03-19T10:11:40.018Z,1008.64
2018-03-19T10:12:40.056Z,1008.64
2018-03-19T10:13:40.079Z,1008.59
2018-03-19T10:14:40.103Z,1008.58
2018-03-19T10:15:40.131Z,1008.56
2018-03-19T10:16:40.169Z,1008.53
2018-03-19T10:17:40.188Z,1008.56
2018-03-19T10:18:40.214Z,1008.52
2018-03-19T10:19:40.241Z,1008.54
2018-03-19T10:20:40.272Z,1008.48
2018-03-19T10:21:40.328Z,1008.50
2018-03-19T10:22:40.321Z,1008.46
2018-03-19T10:23:40.349Z,1008.46
2018-03-19T10:24:40.385Z,1008.49
2018-03-19T10:25:40.409Z,1008.48
2018-03-19T10:26:40.435Z,1008.45
2018-03-19T10:27:40.460Z,1008.49
2018-03-19T10:28:40.492Z,1008.47
2018-03-19T10:29:40.522Z,1008.51
2018-03-19T10:30:40.541Z,1008.49
2018-03-19T10:31:40.572Z,1008.49
2018-03-19T10:32:40.606Z,1008.48
2018-03-19T10:33:40.632Z,1008.52
2018-03-19T10:34:40.652Z,1008.56
2018-03-19T10:35:40.679Z,1008.52
2018-03-19T10:36:40.716Z,1008.51
2018-03-19T10:37:40.740Z,1008.47
2018-03-19T10:38:40.789Z,1008.45
2018-03-19T10:39:40.794Z,1008.47
2018-03-19T10:40:40.823Z,1008.47
2018-03-19T10:41:40.848Z,1008.51
2018-03-19T10:42:40.883Z,1008.47
2018-03-19T10:43:40.901Z,1008.48
2018-03-19T10:44:40.938Z,1008.54
2018-03-19T10:45:40.958Z,1008.53
2018-03-19T10:46:40.994Z,1008.48
2018-03-19T10:47:41.012Z,1008.49
2018-03-19T10:48:41.049Z,1008.49
2018-03-19T10:49:41.068Z,1008.49
2018-03-19T10:50:41.104Z,1008.47
2018-03-19T10:51:41.127Z,1008.48
2018-03-19T10:52:41.158Z,1008.46
2018-03-19T10:53:41.181Z,1008.42
2018-03-19T10:54:41.212Z,1008.42
2018-03-19T10:55:41.240Z,1008.48
2018-03-19T10:56:41.272Z,1008.51
2018-03-19T10:57:41.290Z,1008.44
2018-03-19T10:58:41.326Z,1008.45
2018-03-19T10:59:41.349Z,1008.42
2018-03-19T11:00:41.380Z,1008.44
2018-03-19T11:01:41.407Z,1008.44
2018-03-19T11:02:41.434Z,1008.44
2018-03-19T11:03:41.465Z,1008.48
2018-03-19T11:04:41.486Z,1008.47
2018-03-19T11:05:41.521Z,1008.42
2018-03-19T11:06:41.540Z,1008.35
2018-03-19T11:07:41.573Z,1008.36
2018-03-19T11:08:41.598Z,1008.39
2018-03-19T11:09:41.628Z,1008.37
2018-03-19T11:10:41.653Z,1008.34
2018-03-19T11:11:41.687Z,1008.36
2018-03-19T11:12:41.712Z,1008.38
2018-03-19T11:13:41.744Z,1008.39
2018-03-19T11:14:41.762Z,1008.42
2018-03-19T11:15:41.790Z,1008.38
2018-03-19T11:16:41.827Z,1008.41
2018-03-19T11:17:41.846Z,1008.39
2018-03-19T11:18:41.876Z,1008.35
2018-03-19T11:19:41.900Z,1008.33
2018-03-19T11:20:41.939Z,1008.32
2018-03-19T11:21:41.955Z,1008.29
2018-03-19T11:22:41.992Z,1008.29
2018-03-19T11:23:42.015Z,1008.31
2018-03-19T11:24:42.046Z,1008.27
2018-03-19T11:25:42.070Z,1008.29
2018-03-19T11:26:42.105Z,1008.32
2018-03-19T11:27:42.129Z,1008.27
2018-03-19T11:28:42.155Z,1008.27
2018-03-19T11:29:42.184Z,1008.29
2018-03-19T11:30:42.210Z,1008.35
2018-03-19T11:31:42.244Z,1008.38
2018-03-19T11:32:42.269Z,1008.28
2018-03-19T11:33:42.294Z,1008.32
2018-03-19T11:34:42.319Z,1008.35
2018-03-19T11:35:42.357Z,1008.34
2018-03-19T11:36:42.376Z,1008.35
2018-03-19T11:37:42.405Z,1008.39
2018-03-19T11:38:42.447Z,1008.32
2018-03-19T11:39:42.465Z,1008.28
2018-03-19T11:40:42.490Z,1008.33
2018-03-19T11:41:42.514Z,1008.25
2018-03-19T11:42:42.551Z,1008.31
2018-03-19T11:43:42.574Z,1008.37
2018-03-19T11:44:42.606Z,1008.24
2018-03-19T11:45:42.628Z,1008.32
2018-03-19T11:46:42.655Z,1008.33
2018-03-19T11:47:42.683Z,1008.33
2018-03-19T11:48:42.717Z,1008.42
2018-03-19T11:49:42.737Z,1008.37
2018-03-19T11:50:42.774Z,1008.32
2018-03-19T11:51:42.793Z,1008.29
2018-03-19T11:52:42.830Z,1008.26
2018-03-19T11:53:42.853Z,1008.19
2018-03-19T11:54:42.879Z,1008.11
2018-03-19T11:55:42.911Z,1008.20
2018-03-19T11:56:42.937Z,1008.26
2018-03-19T11:57:42.968Z,1008.23
2018-03-19T11:58:42.985Z,1008.25
2018-03-19T11:59:43.023Z,1008.27
2018-03-19T12:00:43.049Z,1008.27
2018-03-19T12:01:43.068Z,1008.25
2018-03-19T12:02:43.103Z,1008.32
2018-03-19T12:03:43.124Z,1008.27
2018-03-19T12:04:43.156Z,1008.29
2018-03-19T12:05:43.185Z,1008.29